Time;durP1;ratioP1;P1;durP2;ratioP2;P2;SDS_P1;SDS_P2;PMS_P1;PMS_P2;Temp;Humidity;BMP_temperature;BMP_pressure;BME280_temperature;BME280_humidity;BME280_pressure;Samples;Min_cycle;Max_cycle;Signal;HPM_P1;HPM_P2
2022/05/01 00:01:52;;;;;;;;;;;;;;;23.37;27.28;99438.88;4476950;32;33812;-81
2022/05/01 00:04:19;;;;;;;;;;;;;;;23.43;27.18;99431.59;4474240;32;35113;-81
2022/05/01 00:06:46;;;;;;;;;;;;;;;23.05;27.43;99425.00;4467151;32;33772;-82
2022/05/01 00:09:19;;;;;;;;;;;;;;;23.08;28.07;99429.34;4472437;32;33543;-81
2022/05/01 00:11:48;;;;;;;;;;;;;;;23.36;27.61;99434.53;4467284;32;34048;-81
2022/05/01 00:14:17;;;;;;;;;;;;;;;23.26;27.56;99424.28;4469048;32;35347;-81
2022/05/01 00:16:44;;;;;;;;;;;;;;;22.88;28.06;99435.25;4475222;32;34629;-82
2022/05/01 00:19:12;;;;;;;;;;;;;;;23.09;28.17;99426.62;4474645;32;32818;-82
2022/05/01 00:21:59;;;;;;;;;;;;;;;23.07;28.65;99425.84;4455356;32;34967;-81
2022/05/01 00:24:26;;;;;;;;;;;;;;;22.87;28.26;99428.22;4466479;32;34124;-81
2022/05/01 00:26:54;;;;;;;;;;;;;;;22.94;28.32;99427.16;4466573;32;34434;-81
2022/05/01 00:29:21;;;;;;;;;;;;;;;23.23;27.92;99428.81;4466503;32;32854;-81
2022/05/01 00:31:49;;;;;;;;;;;;;;;22.98;27.92;99423.47;4478472;32;34285;-81
2022/05/01 00:37:03;;;;;;;;;;;;;;;22.96;28.40;99420.91;4482792;32;33843;-81
2022/05/01 00:39:30;;;;;;;;;;;;;;;23.17;28.39;99429.00;4483962;32;33340;-82
2022/05/01 00:41:57;;;;;;;;;;;;;;;23.20;28.23;99427.13;4484287;32;34241;-82
2022/05/01 00:44:25;;;;;;;;;;;;;;;23.29;28.24;99428.56;4469606;32;35202;-82
2022/05/01 00:46:52;;;;;;;;;;;;;;;22.90;27.94;99426.34;4467806;32;34319;-82
2022/05/01 00:49:21;;;;;;;;;;;;;;;23.01;28.39;99426.03;4483583;32;34092;-83
2022/05/01 00:51:51;;;;;;;;;;;;;;;22.71;29.31;99428.75;4468464;32;33909;-83
2022/05/01 00:54:20;;;;;;;;;;;;;;;22.85;29.53;99427.44;4475804;32;35139;-83
2022/05/01 00:56:48;;;;;;;;;;;;;;;22.80;29.31;99431.06;4474770;32;34212;-81
2022/05/01 00:59:16;;;;;;;;;;;;;;;22.24;28.92;99425.84;4465036;32;34054;-82
2022/05/01 01:01:44;;;;;;;;;;;;;;;22.77;28.27;99425.91;4476250;32;34262;-82
2022/05/01 01:04:11;;;;;;;;;;;;;;;22.15;28.05;99427.88;4463224;32;35334;-82
2022/05/01 01:06:39;;;;;;;;;;;;;;;22.64;28.26;99427.22;4458291;32;33771;-82
2022/05/01 01:09:06;;;;;;;;;;;;;;;22.63;27.98;99430.78;4457107;32;33072;-83
2022/05/01 01:11:34;;;;;;;;;;;;;;;22.40;28.77;99430.63;4455366;32;33711;-83
2022/05/01 01:14:03;;;;;;;;;;;;;;;22.57;29.08;99429.19;4472468;32;34065;-82
2022/05/01 01:16:30;;;;;;;;;;;;;;;22.64;29.22;99429.00;4482441;32;34171;-83
2022/05/01 01:18:58;;;;;;;;;;;;;;;22.85;29.33;99440.66;4466816;32;33258;-82
2022/05/01 01:21:25;;;;;;;;;;;;;;;23.00;28.76;99421.66;4469805;32;33823;-83
2022/05/01 01:23:52;;;;;;;;;;;;;;;22.36;27.80;99429.00;4475959;32;34408;-84
2022/05/01 01:26:19;;;;;;;;;;;;;;;21.80;27.83;99430.63;4477756;32;34224;-84
2022/05/01 01:28:47;;;;;;;;;;;;;;;21.73;27.27;99426.41;4464050;32;33573;-83
2022/05/01 01:34:03;;;;;;;;;;;;;;;22.46;28.56;99435.72;4463819;32;34280;-83
2022/05/01 01:36:30;;;;;;;;;;;;;;;21.66;27.60;99424.00;4467934;32;34246;-82
2022/05/01 01:38:58;;;;;;;;;;;;;;;21.12;27.50;99421.00;4482654;32;33261;-84
2022/05/01 01:41:27;;;;;;;;;;;;;;;21.81;27.26;99427.06;4461165;32;34304;-83
2022/05/01 01:43:54;;;;;;;;;;;;;;;21.82;27.22;99423.53;4457970;32;35416;-83
2022/05/01 01:46:21;;;;;;;;;;;;;;;21.64;27.44;99424.06;4477980;32;35149;-83
2022/05/01 01:48:50;;;;;;;;;;;;;;;21.22;27.50;99420.78;4483190;32;32770;-82
2022/05/01 01:51:18;;;;;;;;;;;;;;;20.70;28.36;99427.38;4483473;32;34832;-82
2022/05/01 01:53:45;;;;;;;;;;;;;;;20.94;29.61;99433.81;4482386;32;35316;-83
2022/05/01 01:56:12;;;;;;;;;;;;;;;21.23;28.70;99423.38;4482868;32;33643;-83
2022/05/01 01:58:40;;;;;;;;;;;;;;;21.63;27.45;99422.34;4476572;32;34314;-84
2022/05/01 02:01:10;;;;;;;;;;;;;;;21.86;27.79;99421.66;4468841;32;34583;-83
2022/05/01 02:03:38;;;;;;;;;;;;;;;20.81;29.12;99427.97;4477598;32;34805;-83
2022/05/01 02:06:05;;;;;;;;;;;;;;;20.81;28.09;99431.47;4478752;32;34823;-83
2022/05/01 02:08:34;;;;;;;;;;;;;;;21.12;27.89;99421.00;4481528;32;33457;-83
2022/05/01 02:11:03;;;;;;;;;;;;;;;21.38;28.45;99422.13;4460909;32;34980;-83
2022/05/01 02:13:30;;;;;;;;;;;;;;;21.60;28.12;99414.50;4468145;32;34005;-83
2022/05/01 02:15:58;;;;;;;;;;;;;;;21.22;27.93;99416.38;4467870;32;34687;-83
2022/05/01 02:18:25;;;;;;;;;;;;;;;21.00;27.84;99410.78;4467966;32;33039;-82
2022/05/01 02:23:38;;;;;;;;;;;;;;;20.81;28.09;99412.16;4483062;32;33887;-83
2022/05/01 02:26:06;;;;;;;;;;;;;;;21.24;28.25;99406.63;4463657;32;33995;-83
2022/05/01 02:28:33;;;;;;;;;;;;;;;21.76;27.95;99407.88;4474789;32;34498;-83
2022/05/01 02:31:00;;;;;;;;;;;;;;;21.41;29.52;99415.91;4478279;32;33722;-83
2022/05/01 02:33:28;;;;;;;;;;;;;;;21.87;29.31;99416.34;4483292;32;34066;-83
2022/05/01 02:35:55;;;;;;;;;;;;;;;22.10;28.87;99409.50;4481746;32;33826;-83
2022/05/01 02:38:23;;;;;;;;;;;;;;;22.31;28.58;99413.28;4483157;32;34242;-82
2022/05/01 02:40:50;;;;;;;;;;;;;;;22.55;28.60;99416.94;4482574;32;34195;-82
2022/05/01 02:43:17;;;;;;;;;;;;;;;22.27;29.22;99415.16;4481090;32;33697;-83
2022/05/01 02:45:45;;;;;;;;;;;;;;;22.67;28.33;99411.25;4483445;32;34357;-83
2022/05/01 02:48:12;;;;;;;;;;;;;;;22.35;28.90;99417.59;4481494;32;33733;-83
2022/05/01 02:50:40;;;;;;;;;;;;;;;22.58;28.48;99409.78;4476242;32;34275;-82
2022/05/01 02:53:07;;;;;;;;;;;;;;;22.41;28.82;99411.22;4478725;32;35067;-82
2022/05/01 02:55:36;;;;;;;;;;;;;;;22.39;29.23;99420.97;4481613;32;32730;-82
2022/05/01 02:58:03;;;;;;;;;;;;;;;22.26;30.33;99415.22;4483182;32;33133;-83
2022/05/01 03:00:30;;;;;;;;;;;;;;;22.63;29.59;99420.19;4480775;32;35100;-83
2022/05/01 03:02:58;;;;;;;;;;;;;;;22.58;29.02;99403.66;4482258;32;33937;-82
2022/05/01 03:05:26;;;;;;;;;;;;;;;22.57;28.99;99412.47;4479334;32;33998;-81
2022/05/01 03:07:56;;;;;;;;;;;;;;;22.45;28.71;99407.56;4480926;32;34115;-82
2022/05/01 03:10:23;;;;;;;;;;;;;;;22.36;29.61;99403.47;4478134;32;34722;-83
2022/05/01 03:12:51;;;;;;;;;;;;;;;22.56;28.91;99403.66;4482781;32;34445;-83
2022/05/01 03:15:18;;;;;;;;;;;;;;;22.86;29.05;99406.22;4459482;32;34333;-83
2022/05/01 03:23:18;;;;;;;;;;;;;;;22.85;28.61;99422.16;4479470;32;34251;-82
2022/05/01 03:25:45;;;;;;;;;;;;;;;22.60;29.72;99422.94;4479613;32;33865;-83
2022/05/01 03:28:12;;;;;;;;;;;;;;;22.46;29.50;99419.88;4475112;32;33146;-83
2022/05/01 03:30:39;;;;;;;;;;;;;;;22.40;29.76;99426.22;4473739;32;34142;-82
2022/05/01 03:33:07;;;;;;;;;;;;;;;22.53;29.84;99426.69;4482038;32;34356;-82
2022/05/01 03:35:37;;;;;;;;;;;;;;;22.22;29.81;99424.16;4480228;32;34053;-83
2022/05/01 03:38:08;;;;;;;;;;;;;;;22.36;28.74;99424.59;4461194;32;35974;-83
2022/05/01 03:40:35;;;;;;;;;;;;;;;22.54;28.38;99428.41;4466490;32;34321;-81
2022/05/01 03:43:05;;;;;;;;;;;;;;;22.58;29.37;99422.13;4465773;32;34430;-83
2022/05/01 03:45:33;;;;;;;;;;;;;;;22.44;28.02;99427.00;4464596;32;34592;-83
2022/05/01 03:48:00;;;;;;;;;;;;;;;22.32;29.28;99429.09;4467512;32;32956;-83
2022/05/01 03:50:27;;;;;;;;;;;;;;;22.57;29.45;99426.53;4468050;32;33963;-83
2022/05/01 03:52:54;;;;;;;;;;;;;;;21.86;29.13;99425.16;4476766;32;33909;-82
2022/05/01 03:55:22;;;;;;;;;;;;;;;21.35;28.78;99433.62;4480317;32;35103;-83
2022/05/01 03:57:49;;;;;;;;;;;;;;;21.53;29.00;99432.25;4481719;32;33298;-83
2022/05/01 04:00:20;;;;;;;;;;;;;;;21.76;29.32;99436.03;4480684;32;35038;-83
2022/05/01 04:02:47;;;;;;;;;;;;;;;21.25;29.69;99433.88;4481549;32;34572;-82
2022/05/01 04:05:14;;;;;;;;;;;;;;;20.59;30.22;99446.94;4476008;32;34325;-83
2022/05/01 04:07:42;;;;;;;;;;;;;;;21.20;29.67;99436.63;4482143;32;34250;-83
2022/05/01 04:10:10;;;;;;;;;;;;;;;21.12;29.86;99446.53;4483549;32;34026;-83
2022/05/01 04:12:38;;;;;;;;;;;;;;;21.62;29.25;99447.81;4469663;32;34935;-83
2022/05/01 04:15:09;;;;;;;;;;;;;;;20.49;30.87;99449.78;4483451;32;35135;-82
2022/05/01 04:17:38;;;;;;;;;;;;;;;19.96;31.68;99447.41;4457560;32;34224;-82
2022/05/01 04:20:08;;;;;;;;;;;;;;;19.49;32.37;99450.97;4448220;32;34896;-81
2022/05/01 04:22:37;;;;;;;;;;;;;;;19.05;33.38;99452.63;4451739;32;34238;-82
2022/05/01 04:25:14;;;;;;;;;;;;;;;19.75;32.13;99450.50;4444754;32;35171;-82
2022/05/01 04:27:41;;;;;;;;;;;;;;;19.65;32.67;99455.06;4452379;32;32854;-83
2022/05/01 04:30:10;;;;;;;;;;;;;;;20.29;31.63;99463.41;4450680;32;34145;-83
2022/05/01 04:32:57;;;;;;;;;;;;;;;20.42;31.52;99460.47;4446594;32;34324;-82
2022/05/01 04:35:29;;;;;;;;;;;;;;;20.71;31.37;99461.56;4450087;32;34100;-82
2022/05/01 04:37:59;;;;;;;;;;;;;;;18.98;34.17;99461.50;4451617;32;33358;-82
2022/05/01 04:40:27;;;;;;;;;;;;;;;19.65;33.09;99457.69;4452373;32;33948;-83
2022/05/01 04:43:10;;;;;;;;;;;;;;;19.14;33.80;99469.13;4452687;32;33957;-82
2022/05/01 04:45:38;;;;;;;;;;;;;;;19.92;32.92;99462.41;4450638;32;34006;-83
2022/05/01 04:48:06;;;;;;;;;;;;;;;19.91;32.87;99462.44;4449939;32;34036;-83
2022/05/01 04:50:34;;;;;;;;;;;;;;;19.53;33.15;99469.28;4449265;32;34800;-83
2022/05/01 04:53:01;;;;;;;;;;;;;;;19.22;33.73;99466.38;4452113;32;34307;-83
2022/05/01 04:55:29;;;;;;;;;;;;;;;18.60;34.57;99465.56;4452579;32;34227;-82
2022/05/01 04:57:57;;;;;;;;;;;;;;;19.61;33.31;99471.78;4452101;32;34094;-83
2022/05/01 05:00:25;;;;;;;;;;;;;;;19.60;33.51;99475.31;4439692;32;34180;-82
2022/05/01 05:02:53;;;;;;;;;;;;;;;19.54;33.37;99468.37;4451941;32;35208;-83
2022/05/01 05:05:21;;;;;;;;;;;;;;;19.96;33.14;99465.84;4446235;32;35032;-83
2022/05/01 05:07:48;;;;;;;;;;;;;;;19.60;33.69;99470.06;4448108;32;34005;-83
2022/05/01 05:10:16;;;;;;;;;;;;;;;19.87;33.01;99461.63;4450443;32;33474;-82
2022/05/01 05:12:44;;;;;;;;;;;;;;;19.14;34.81;99470.88;4452752;32;34529;-82
2022/05/01 05:15:13;;;;;;;;;;;;;;;19.40;34.10;99480.94;4450493;32;34515;-82
2022/05/01 05:17:41;;;;;;;;;;;;;;;20.14;33.21;99481.25;4463122;32;33263;-82
2022/05/01 05:20:10;;;;;;;;;;;;;;;21.06;31.18;99478.28;4482925;32;35180;-83
2022/05/01 05:22:38;;;;;;;;;;;;;;;20.07;32.83;99479.62;4473020;32;34938;-83
2022/05/01 05:25:08;;;;;;;;;;;;;;;20.35;32.77;99479.94;4472634;32;34359;-83
2022/05/01 05:27:35;;;;;;;;;;;;;;;20.71;32.00;99473.88;4463846;32;33263;-83
2022/05/01 05:30:03;;;;;;;;;;;;;;;20.15;33.00;99477.75;4472205;32;34243;-81
2022/05/01 05:32:35;;;;;;;;;;;;;;;20.14;33.02;99481.25;4483584;32;35801;-82
2022/05/01 05:35:03;;;;;;;;;;;;;;;20.24;32.86;99476.66;4471764;32;33374;-81
2022/05/01 05:37:31;;;;;;;;;;;;;;;20.10;33.40;99484.00;4483135;32;33406;-83
2022/05/01 05:39:59;;;;;;;;;;;;;;;19.92;33.75;99483.44;4483456;32;34888;-81
2022/05/01 05:42:30;;;;;;;;;;;;;;;20.33;33.08;99483.50;4454240;32;35028;-82
2022/05/01 05:44:57;;;;;;;;;;;;;;;20.80;32.41;99489.50;4476977;32;34584;-82
2022/05/01 05:47:24;;;;;;;;;;;;;;;20.04;33.37;99486.72;4465709;32;34401;-83
2022/05/01 05:49:52;;;;;;;;;;;;;;;20.08;33.10;99491.94;4471276;32;33929;-82
2022/05/01 05:52:21;;;;;;;;;;;;;;;20.33;33.51;99496.66;4483370;32;35191;-82
2022/05/01 05:54:48;;;;;;;;;;;;;;;20.37;33.42;99499.19;4479482;32;34227;-81
2022/05/01 05:57:15;;;;;;;;;;;;;;;20.21;33.48;99502.19;4483329;32;32945;-82
2022/05/01 05:59:42;;;;;;;;;;;;;;;20.29;34.30;99501.12;4471393;32;34933;-81
2022/05/01 06:02:10;;;;;;;;;;;;;;;19.81;34.96;99502.97;4472966;32;34118;-83
2022/05/01 06:04:41;;;;;;;;;;;;;;;20.49;33.44;99507.72;4481216;32;34775;-81
2022/05/01 06:07:08;;;;;;;;;;;;;;;20.77;33.70;99508.88;4481215;32;34175;-82
2022/05/01 06:09:36;;;;;;;;;;;;;;;20.90;33.09;99505.03;4474267;32;34114;-83
2022/05/01 06:12:03;;;;;;;;;;;;;;;20.33;33.87;99508.06;4483564;32;34089;-82
2022/05/01 06:14:31;;;;;;;;;;;;;;;19.78;34.73;99509.19;4482485;32;34739;-82
2022/05/01 06:16:58;;;;;;;;;;;;;;;19.40;35.53;99518.63;4481109;32;33275;-82
2022/05/01 06:19:25;;;;;;;;;;;;;;;20.34;34.00;99507.19;4482006;32;34100;-82
2022/05/01 06:21:52;;;;;;;;;;;;;;;21.04;33.54;99506.47;4478581;32;34173;-82
2022/05/01 06:24:20;;;;;;;;;;;;;;;21.07;33.37;99516.97;4481099;32;34172;-83
2022/05/01 06:26:47;;;;;;;;;;;;;;;20.76;34.44;99515.06;4474103;32;34103;-83
2022/05/01 06:29:15;;;;;;;;;;;;;;;21.14;34.23;99510.63;4474129;32;34444;-81
2022/05/01 06:31:42;;;;;;;;;;;;;;;21.40;32.72;99506.47;4480617;32;35375;-82
2022/05/01 06:34:10;;;;;;;;;;;;;;;21.80;32.00;99503.66;4477351;32;34451;-81
2022/05/01 06:36:37;;;;;;;;;;;;;;;21.11;33.15;99514.19;4482911;32;33681;-83
2022/05/01 06:39:04;;;;;;;;;;;;;;;21.07;32.93;99514.31;4482358;32;34875;-83
2022/05/01 06:41:32;;;;;;;;;;;;;;;21.17;32.92;99513.16;4482558;32;34284;-83
2022/05/01 06:43:59;;;;;;;;;;;;;;;22.13;31.86;99512.41;4478380;32;33860;-83
2022/05/01 06:46:27;;;;;;;;;;;;;;;22.91;30.17;99517.09;4482521;32;33904;-83
2022/05/01 06:48:55;;;;;;;;;;;;;;;22.55;30.74;99517.34;4483145;32;35122;-82
2022/05/01 06:51:22;;;;;;;;;;;;;;;22.71;31.76;99515.97;4482365;32;35119;-82
2022/05/01 06:53:49;;;;;;;;;;;;;;;23.34;29.42;99521.03;4474754;32;34048;-82
2022/05/01 06:56:17;;;;;;;;;;;;;;;21.69;32.96;99532.97;4479968;32;33625;-83
2022/05/01 06:58:44;;;;;;;;;;;;;;;23.08;30.82;99516.59;4482889;32;35079;-83
2022/05/01 07:01:11;;;;;;;;;;;;;;;22.97;30.92;99522.25;4481305;32;34119;-82
2022/05/01 07:03:42;;;;;;;;;;;;;;;23.24;30.29;99510.75;4480329;32;34859;-83
2022/05/01 07:06:09;;;;;;;;;;;;;;;23.08;31.52;99509.53;4482041;32;33257;-83
2022/05/01 07:08:36;;;;;;;;;;;;;;;22.68;31.59;99513.41;4478089;32;34418;-82
2022/05/01 07:11:04;;;;;;;;;;;;;;;23.59;31.35;99500.72;4469814;32;34828;-80
2022/05/01 07:13:31;;;;;;;;;;;;;;;23.44;31.81;99511.84;4471641;32;34565;-83
2022/05/01 07:15:58;;;;;;;;;;;;;;;23.12;31.45;99505.87;4472289;32;32970;-82
2022/05/01 07:18:26;;;;;;;;;;;;;;;23.37;31.35;99497.09;4479774;32;35131;-82
2022/05/01 07:20:53;;;;;;;;;;;;;;;22.34;32.16;99501.22;4476411;32;34047;-83
2022/05/01 07:23:22;;;;;;;;;;;;;;;22.64;31.66;99503.84;4478678;32;34939;-81
2022/05/01 07:25:50;;;;;;;;;;;;;;;23.58;31.61;99503.44;4473520;32;33265;-82
2022/05/01 07:28:17;;;;;;;;;;;;;;;23.06;31.29;99501.62;4471384;32;34884;-81
2022/05/01 07:30:44;;;;;;;;;;;;;;;23.28;30.81;99501.78;4478044;32;34135;-81
2022/05/01 07:33:12;;;;;;;;;;;;;;;23.18;31.42;99503.00;4480347;32;34207;-82
2022/05/01 07:35:39;;;;;;;;;;;;;;;23.93;29.76;99489.81;4482379;32;32973;-82
2022/05/01 07:38:06;;;;;;;;;;;;;;;22.41;32.29;99503.69;4476710;32;35047;-83
2022/05/01 07:40:33;;;;;;;;;;;;;;;22.47;33.66;99500.88;4482377;32;34222;-83
2022/05/01 07:43:01;;;;;;;;;;;;;;;22.45;32.17;99492.13;4482791;32;34086;-84
2022/05/01 07:45:28;;;;;;;;;;;;;;;22.37;32.89;99499.41;4476814;32;33828;-82
2022/05/01 07:47:58;;;;;;;;;;;;;;;23.37;31.72;99490.03;4473659;32;33803;-83
2022/05/01 07:50:26;;;;;;;;;;;;;;;22.64;33.14;99492.41;4471575;32;34491;-83
2022/05/01 07:52:53;;;;;;;;;;;;;;;23.98;31.15;99492.31;4480983;32;34664;-84
2022/05/01 07:55:22;;;;;;;;;;;;;;;25.03;29.45;99489.13;4476041;32;33299;-82
2022/05/01 07:57:49;;;;;;;;;;;;;;;25.75;29.12;99488.75;4468138;32;34980;-82
2022/05/01 08:00:16;;;;;;;;;;;;;;;25.29;29.61;99493.41;4481254;32;34322;-82
2022/05/01 08:05:30;;;;;;;;;;;;;;;25.82;28.27;99479.59;4482566;32;33391;-83
2022/05/01 08:07:57;;;;;;;;;;;;;;;24.45;29.79;99484.38;4482418;32;35183;-82
2022/05/01 08:10:24;;;;;;;;;;;;;;;25.08;29.90;99485.38;4482518;32;34353;-83
2022/05/01 08:12:51;;;;;;;;;;;;;;;23.75;28.59;99478.16;4481997;32;34937;-83
2022/05/01 08:15:19;;;;;;;;;;;;;;;23.23;30.86;99487.00;4477765;32;36040;-82
2022/05/01 08:17:46;;;;;;;;;;;;;;;22.37;31.17;99483.56;4481008;32;34362;-83
2022/05/01 08:23:06;;;;;;;;;;;;;;;22.91;31.36;99472.16;4474310;32;34104;-83
2022/05/01 08:25:34;;;;;;;;;;;;;;;21.93;33.33;99478.62;4462051;32;32716;-82
2022/05/01 08:28:01;;;;;;;;;;;;;;;23.62;31.09;99479.47;4467675;32;35160;-81
2022/05/01 08:30:28;;;;;;;;;;;;;;;24.04;29.45;99473.53;4473393;32;34353;-80
2022/05/01 08:32:57;;;;;;;;;;;;;;;24.13;29.04;99469.69;4470985;32;33610;-81
2022/05/01 08:35:24;;;;;;;;;;;;;;;23.50;30.03;99469.31;4477732;32;33147;-81
2022/05/01 08:37:51;;;;;;;;;;;;;;;22.82;30.90;99481.25;4474047;32;34804;-80
2022/05/01 08:40:18;;;;;;;;;;;;;;;23.77;29.63;99473.66;4479386;32;33938;-81
2022/05/01 08:42:46;;;;;;;;;;;;;;;23.52;30.41;99470.09;4481243;32;33923;-81
2022/05/01 08:45:13;;;;;;;;;;;;;;;23.65;30.20;99471.41;4459916;32;34182;-82
2022/05/01 08:47:50;;;;;;;;;;;;;;;24.27;29.24;99468.22;4463440;32;34785;-82
2022/05/01 08:50:18;;;;;;;;;;;;;;;23.51;28.33;99463.09;4477337;32;34551;-79
2022/05/01 08:52:45;;;;;;;;;;;;;;;23.29;28.71;99465.63;4460942;32;33879;-81
2022/05/01 08:55:12;;;;;;;;;;;;;;;22.86;29.94;99471.47;4481452;32;34330;-80
2022/05/01 08:57:40;;;;;;;;;;;;;;;23.74;28.83;99457.88;4463330;32;35055;-81
2022/05/01 09:00:08;;;;;;;;;;;;;;;22.73;30.03;99449.81;4456129;32;34166;-81
2022/05/01 09:02:35;;;;;;;;;;;;;;;23.63;28.74;99446.75;4478080;32;32585;-82
2022/05/01 09:05:03;;;;;;;;;;;;;;;23.38;29.60;99453.88;4468406;32;33396;-80
2022/05/01 09:07:30;;;;;;;;;;;;;;;24.28;28.64;99446.13;4478140;32;32759;-80
2022/05/01 09:09:58;;;;;;;;;;;;;;;24.93;27.67;99448.88;4475761;32;35122;-81
2022/05/01 09:15:12;;;;;;;;;;;;;;;25.34;27.38;99444.47;4472245;32;33512;-82
2022/05/01 09:17:39;;;;;;;;;;;;;;;25.56;26.13;99440.91;4474585;32;33820;-80
2022/05/01 09:20:07;;;;;;;;;;;;;;;25.73;26.35;99447.19;4477813;32;34275;-81
2022/05/01 09:22:48;;;;;;;;;;;;;;;25.22;26.71;99442.38;4481239;32;34857;-80
2022/05/01 09:25:16;;;;;;;;;;;;;;;25.23;25.88;99433.50;4469615;32;34099;-81
2022/05/01 09:27:49;;;;;;;;;;;;;;;24.81;26.69;99447.56;4478441;32;34102;-81
2022/05/01 09:30:25;;;;;;;;;;;;;;;23.94;26.68;99437.72;4483605;32;34323;-82
2022/05/01 09:32:54;;;;;;;;;;;;;;;25.46;26.28;99430.69;4472324;32;34898;-81
2022/05/01 09:35:21;;;;;;;;;;;;;;;25.82;26.51;99421.19;4478926;32;33588;-82
2022/05/01 09:37:48;;;;;;;;;;;;;;;26.57;24.54;99425.66;4468148;32;33160;-81
2022/05/01 09:40:29;;;;;;;;;;;;;;;26.42;25.67;99421.91;4469461;32;34299;-82
2022/05/01 09:42:57;;;;;;;;;;;;;;;25.76;26.33;99424.97;4464835;32;34005;-81
2022/05/01 09:45:31;;;;;;;;;;;;;;;25.09;26.54;99434.03;4454399;32;34105;-80
2022/05/01 09:48:08;;;;;;;;;;;;;;;24.89;26.89;99439.31;4473282;32;33710;-80
2022/05/01 09:50:40;;;;;;;;;;;;;;;25.38;27.27;99432.84;4468793;32;33990;-81
2022/05/01 09:53:07;;;;;;;;;;;;;;;25.29;24.85;99421.75;4468830;32;35214;-80
2022/05/01 09:55:35;;;;;;;;;;;;;;;25.05;25.80;99420.97;4469637;32;34365;-80
2022/05/01 09:58:05;;;;;;;;;;;;;;;25.13;25.89;99427.72;4470479;32;34097;-81
2022/05/01 10:00:35;;;;;;;;;;;;;;;25.30;25.37;99423.47;4478221;32;34268;-80
2022/05/01 10:03:21;;;;;;;;;;;;;;;25.16;25.88;99416.97;4467989;32;34316;-81
2022/05/01 10:05:52;;;;;;;;;;;;;;;26.28;24.97;99413.72;4467064;32;33316;-80
2022/05/01 10:08:20;;;;;;;;;;;;;;;25.68;24.81;99417.34;4468051;32;34123;-80
2022/05/01 10:10:49;;;;;;;;;;;;;;;26.24;25.04;99407.69;4469771;32;35086;-80
2022/05/01 10:13:17;;;;;;;;;;;;;;;25.72;24.48;99402.09;4465256;32;34001;-81
2022/05/01 10:16:06;;;;;;;;;;;;;;;24.76;25.72;99410.66;4483022;32;33457;-80
2022/05/01 10:18:34;;;;;;;;;;;;;;;24.93;25.49;99398.50;4466857;32;34126;-81
2022/05/01 10:21:02;;;;;;;;;;;;;;;23.85;26.50;99406.31;4481041;32;34326;-81
2022/05/01 10:23:30;;;;;;;;;;;;;;;24.46;26.52;99399.50;4465714;32;33833;-82
2022/05/01 10:25:59;;;;;;;;;;;;;;;24.99;25.69;99399.06;4482497;32;34014;-82
2022/05/01 10:29:05;;;;;;;;;;;;;;;25.56;24.38;99401.94;4479674;32;34161;-83
2022/05/01 10:34:47;;;;;;;;;;;;;;;24.97;23.27;99389.47;4473475;32;34272;-82
2022/05/01 10:37:31;;;;;;;;;;;;;;;24.95;24.14;99393.97;4483448;32;34057;-82
2022/05/01 10:39:58;;;;;;;;;;;;;;;25.59;24.74;99398.28;4469415;32;34012;-82
2022/05/01 10:42:46;;;;;;;;;;;;;;;25.44;24.06;99399.84;4466961;32;34857;-82
2022/05/01 10:45:23;;;;;;;;;;;;;;;26.08;23.57;99391.59;4468657;32;34425;-81
2022/05/01 10:47:54;;;;;;;;;;;;;;;25.48;24.48;99386.34;4468726;32;34075;-80
2022/05/01 10:50:21;;;;;;;;;;;;;;;25.03;24.33;99389.19;4467165;32;34779;-80
2022/05/01 10:53:16;;;;;;;;;;;;;;;25.21;24.14;99385.78;4479152;32;33830;-81
2022/05/01 10:55:44;;;;;;;;;;;;;;;26.33;25.26;99386.00;4469957;32;34104;-81
2022/05/01 10:58:17;;;;;;;;;;;;;;;26.85;22.96;99372.78;4464649;32;33082;-82
2022/05/01 11:00:46;;;;;;;;;;;;;;;25.97;23.98;99375.31;4481841;32;35062;-83
2022/05/01 11:03:24;;;;;;;;;;;;;;;25.52;24.93;99376.47;4483074;32;35377;-82
2022/05/01 11:05:55;;;;;;;;;;;;;;;25.40;25.10;99380.53;4474836;32;34370;-83
2022/05/01 11:08:24;;;;;;;;;;;;;;;26.55;24.18;99374.31;4476725;32;33387;-81
2022/05/01 11:10:53;;;;;;;;;;;;;;;27.39;24.34;99368.25;4460728;32;34255;-81
2022/05/01 11:13:33;;;;;;;;;;;;;;;25.74;24.46;99381.66;4476742;32;34513;-82
2022/05/01 11:16:00;;;;;;;;;;;;;;;26.59;22.78;99374.09;4466335;32;34024;-82
2022/05/01 11:18:29;;;;;;;;;;;;;;;26.44;23.86;99361.53;4471319;32;34247;-82
2022/05/01 11:21:19;;;;;;;;;;;;;;;25.35;24.29;99357.78;4468232;32;34869;-82
2022/05/01 11:23:46;;;;;;;;;;;;;;;26.27;24.80;99364.16;4482931;32;34553;-82
2022/05/01 11:26:15;;;;;;;;;;;;;;;25.42;24.09;99359.22;4478332;32;33775;-83
2022/05/01 11:28:43;;;;;;;;;;;;;;;24.40;24.34;99361.81;4481544;32;34196;-82
2022/05/01 11:31:29;;;;;;;;;;;;;;;25.04;23.26;99353.81;4481728;32;34152;-82
2022/05/01 11:34:15;;;;;;;;;;;;;;;24.55;24.40;99344.38;4473615;32;34983;-80
2022/05/01 11:36:57;;;;;;;;;;;;;;;24.15;24.66;99354.81;4478781;32;33985;-82
2022/05/01 11:39:43;;;;;;;;;;;;;;;24.33;23.66;99347.06;4472167;32;34396;-82
2022/05/01 11:42:37;;;;;;;;;;;;;;;25.67;24.40;99345.69;4482459;32;33918;-82
2022/05/01 11:45:05;;;;;;;;;;;;;;;26.43;23.76;99344.72;4479855;32;34407;-81
2022/05/01 11:47:33;;;;;;;;;;;;;;;25.97;21.81;99335.47;4482309;32;34144;-84
2022/05/01 11:50:03;;;;;;;;;;;;;;;25.51;22.81;99342.88;4479835;32;32762;-83
2022/05/01 11:52:34;;;;;;;;;;;;;;;24.71;23.23;99340.19;4478897;32;34417;-81
2022/05/01 11:55:06;;;;;;;;;;;;;;;24.27;23.84;99340.19;4479310;32;34393;-81
2022/05/01 12:03:07;;;;;;;;;;;;;;;24.48;24.26;99334.06;4469372;32;35109;-82
2022/05/01 12:05:47;;;;;;;;;;;;;;;25.01;23.43;99319.44;4467133;32;34058;-82
2022/05/01 12:08:15;;;;;;;;;;;;;;;24.60;24.11;99322.09;4456510;32;785901;-81
2022/05/01 12:10:42;;;;;;;;;;;;;;;24.75;24.25;99318.78;4481430;32;33581;-80
2022/05/01 12:13:20;;;;;;;;;;;;;;;24.47;24.40;99319.09;4481458;32;34103;-82
2022/05/01 12:15:48;;;;;;;;;;;;;;;24.64;24.85;99320.16;4481887;32;34449;-81
2022/05/01 12:18:16;;;;;;;;;;;;;;;25.53;23.98;99326.88;4479549;32;33514;-82
2022/05/01 12:20:43;;;;;;;;;;;;;;;26.37;22.71;99312.28;4481944;32;33466;-82
2022/05/01 12:23:18;;;;;;;;;;;;;;;26.75;22.04;99318.34;4480424;32;33921;-81
2022/05/01 12:25:47;;;;;;;;;;;;;;;27.41;23.12;99312.25;4481319;32;34512;-81
2022/05/01 12:28:15;;;;;;;;;;;;;;;27.32;20.95;99297.63;4468284;32;35281;-84
2022/05/01 12:30:42;;;;;;;;;;;;;;;27.72;22.91;99299.91;4464877;32;34640;-81
2022/05/01 12:33:17;;;;;;;;;;;;;;;26.43;22.81;99296.00;4481692;32;34962;-81
2022/05/01 12:35:52;;;;;;;;;;;;;;;25.89;23.15;99297.78;4466317;32;32568;-81
2022/05/01 12:38:20;;;;;;;;;;;;;;;26.49;22.23;99289.56;4482422;32;34144;-80
2022/05/01 12:43:52;;;;;;;;;;;;;;;26.29;22.15;99285.19;4478872;32;34888;-83
2022/05/01 12:46:23;;;;;;;;;;;;;;;25.15;23.36;99282.56;4479370;32;34126;-83
2022/05/01 12:48:51;;;;;;;;;;;;;;;25.60;24.03;99281.38;4481318;32;35163;-82
2022/05/01 12:51:18;;;;;;;;;;;;;;;26.31;23.04;99276.22;4476766;32;33205;-81
2022/05/01 12:53:46;;;;;;;;;;;;;;;25.84;23.49;99279.41;4465527;32;33793;-81
2022/05/01 12:56:21;;;;;;;;;;;;;;;26.24;23.03;99273.94;4464407;32;34508;-83
2022/05/01 12:58:50;;;;;;;;;;;;;;;25.05;23.75;99267.13;4469901;32;34257;-84
2022/05/01 13:01:21;;;;;;;;;;;;;;;25.26;23.79;99262.66;4469546;32;33248;-84
2022/05/01 13:03:49;;;;;;;;;;;;;;;24.91;24.84;99262.44;4484069;32;35028;-83
2022/05/01 13:06:17;;;;;;;;;;;;;;;25.92;24.22;99263.09;4483757;32;34032;-83
2022/05/01 13:08:45;;;;;;;;;;;;;;;26.51;23.46;99248.66;4483902;32;34907;-84
2022/05/01 13:11:21;;;;;;;;;;;;;;;25.75;24.49;99253.25;4484094;32;33207;-83
2022/05/01 13:13:48;;;;;;;;;;;;;;;26.20;23.77;99252.81;4484095;32;34858;-83
2022/05/01 13:16:16;;;;;;;;;;;;;;;26.50;23.19;99238.97;4484194;32;34574;-84
2022/05/01 13:18:44;;;;;;;;;;;;;;;26.71;22.53;99246.75;4483856;32;33898;-84
2022/05/01 13:21:12;;;;;;;;;;;;;;;25.68;22.97;99250.06;4484383;32;34307;-84
2022/05/01 13:23:40;;;;;;;;;;;;;;;25.32;23.45;99241.16;4483229;32;35168;-84
2022/05/01 13:26:08;;;;;;;;;;;;;;;25.71;23.66;99241.91;4469556;32;35104;-84
2022/05/01 13:28:35;;;;;;;;;;;;;;;24.60;24.21;99231.09;4483844;32;34165;-85
2022/05/01 13:31:03;;;;;;;;;;;;;;;23.97;24.91;99239.00;4483914;32;33457;-84
2022/05/01 13:33:30;;;;;;;;;;;;;;;25.18;23.04;99224.06;4483952;32;34289;-84